Time;durP1;ratioP1;P1;durP2;ratioP2;P2;SDS_P1;SDS_P2;PMS_P1;PMS_P2;Temp;Humidity;BMP_temperature;BMP_pressure;BME280_temperature;BME280_humidity;BME280_pressure;Samples;Min_cycle;Max_cycle;Signal;HPM_P1;HPM_P2
2023/12/12 00:02:22;;;;;;;0.60;0.60;;;;;;;5.59;66.36;99353.81;4417800;32;31925;-82
2023/12/12 00:04:50;;;;;;;2.47;2.28;;;;;;;5.62;65.94;99356.38;4420228;32;34618;-82
2023/12/12 00:07:18;;;;;;;3.87;3.08;;;;;;;5.93;65.14;99350.19;4395812;32;32538;-82
2023/12/12 00:09:45;;;;;;;3.60;2.50;;;;;;;6.11;64.01;99345.19;4406877;32;32261;-82
2023/12/12 00:12:13;;;;;;;0.85;0.85;;;;;;;5.68;65.05;99356.16;4407948;32;33297;-82
2023/12/12 00:14:41;;;;;;;4.03;3.60;;;;;;;5.56;65.75;99349.56;4406291;32;33775;-81
2023/12/12 00:17:09;;;;;;;3.15;2.20;;;;;;;5.45;65.82;99363.84;4392148;32;32328;-81
2023/12/12 00:19:41;;;;;;;1.67;1.58;;;;;;;5.67;65.02;99367.56;4419060;32;34295;-81
2023/12/12 00:22:09;;;;;;;;;;;;;;;5.48;65.33;99382.09;4395221;32;32214;-81
2023/12/12 00:24:37;;;;;;;1.80;1.65;;;;;;;5.60;65.02;99379.09;4406441;32;33797;-81
2023/12/12 00:27:04;;;;;;;1.35;1.33;;;;;;;5.59;65.68;99377.41;4409847;32;33056;-82
2023/12/12 00:29:35;;;;;;;1.60;1.37;;;;;;;5.61;65.70;99378.22;4417766;32;33143;-83
2023/12/12 00:32:03;;;;;;;2.10;2.00;;;;;;;5.64;65.67;99394.69;4407472;32;34126;-82
2023/12/12 00:34:31;;;;;;;0.93;0.93;;;;;;;5.63;65.34;99398.22;4408291;32;33572;-82
2023/12/12 00:36:59;;;;;;;2.35;2.12;;;;;;;5.60;65.82;99392.19;4392279;32;32586;-82
2023/12/12 00:39:26;;;;;;;4.55;2.50;;;;;;;5.47;65.99;99383.87;4417529;32;33590;-84
2023/12/12 00:41:56;;;;;;;4.90;2.65;;;;;;;5.22;67.22;99386.34;4405498;32;33947;-84
2023/12/12 00:44:23;;;;;;;0.88;0.88;;;;;;;5.45;65.83;99374.34;4395620;32;32490;-84
2023/12/12 00:46:51;;;;;;;1.65;1.55;;;;;;;5.47;66.00;99369.94;4405482;32;33449;-84
2023/12/12 00:49:19;;;;;;;6.87;5.50;;;;;;;5.57;65.88;99381.84;4404019;32;34587;-84
2023/12/12 00:51:46;;;;;;;3.53;2.37;;;;;;;5.52;65.72;99379.34;4393361;32;32645;-85
2023/12/12 00:54:14;;;;;;;2.50;1.75;;;;;;;5.52;65.01;99386.34;4405400;32;34575;-83
2023/12/12 00:56:44;;;;;;;6.85;3.53;;;;;;;5.18;66.28;99389.97;4407689;32;34102;-83
2023/12/12 00:59:11;;;;;;;1.67;1.58;;;;;;;5.16;65.47;99391.75;4408791;32;33621;-84
2023/12/12 01:01:39;;;;;;;1.10;1.10;;;;;;;5.23;65.85;99385.44;4407043;32;32694;-83
2023/12/12 01:04:10;;;;;;;1.60;1.50;;;;;;;4.92;65.56;99385.44;4403104;32;33250;-84
2023/12/12 01:06:37;;;;;;;2.28;1.83;;;;;;;4.97;66.49;99387.91;4393025;32;33805;-83
2023/12/12 01:09:05;;;;;;;2.60;2.40;;;;;;;5.00;66.00;99393.09;4404832;32;33464;-84
2023/12/12 01:11:33;;;;;;;1.30;1.30;;;;;;;5.06;66.03;99395.53;4407080;32;33373;-84
2023/12/12 01:14:01;;;;;;;2.08;1.98;;;;;;;5.17;65.46;99392.59;4378157;32;34064;-83
2023/12/12 01:16:29;;;;;;;2.40;2.28;;;;;;;5.18;65.75;99384.72;4395038;32;33208;-84
2023/12/12 01:18:57;;;;;;;1.20;1.20;;;;;;;5.25;65.50;99375.78;4408102;32;34597;-83
2023/12/12 01:21:25;;;;;;;3.83;3.15;;;;;;;5.34;65.00;99391.22;4403370;32;33041;-83
2023/12/12 01:23:54;;;;;;;3.40;2.58;;;;;;;5.37;65.17;99380.66;4406003;32;33754;-82
2023/12/12 01:26:23;;;;;;;3.62;2.78;;;;;;;5.37;65.27;99387.66;4407984;32;33913;-82
2023/12/12 01:28:51;;;;;;;4.57;3.78;;;;;;;5.36;65.04;99399.03;4395537;32;32415;-82
2023/12/12 01:31:19;;;;;;;7.60;2.87;;;;;;;5.46;64.83;99389.13;4406172;32;33543;-82
2023/12/12 01:33:48;;;;;;;2.42;2.22;;;;;;;5.67;64.02;99388.50;4392762;32;32709;-82
2023/12/12 01:36:15;;;;;;;1.90;1.80;;;;;;;5.72;63.47;99383.97;4389986;32;32736;-82
2023/12/12 01:38:44;;;;;;;0.50;0.50;;;;;;;5.47;64.09;99389.13;4407106;32;33368;-82
2023/12/12 01:41:12;;;;;;;3.25;3.05;;;;;;;5.36;64.62;99373.72;4406125;32;33834;-82
2023/12/12 01:43:40;;;;;;;1.40;0.77;;;;;;;5.33;65.12;99380.81;4404590;32;34529;-82
2023/12/12 01:46:12;;;;;;;5.78;1.20;;;;;;;5.42;64.65;99371.81;4404281;32;33472;-82
2023/12/12 01:48:41;;;;;;;2.17;1.98;;;;;;;5.33;65.36;99376.41;4400754;32;33867;-82
2023/12/12 01:51:09;;;;;;;1.25;1.05;;;;;;;5.28;65.55;99386.16;4407588;32;34058;-82
2023/12/12 01:53:41;;;;;;;0.65;0.65;;;;;;;5.17;66.33;99375.13;4393581;32;34103;-81
2023/12/12 01:56:09;;;;;;;4.18;2.65;;;;;;;5.29;65.93;99366.94;4387456;32;33024;-81
2023/12/12 01:58:38;;;;;;;3.50;3.17;;;;;;;5.26;65.97;99372.25;4392443;32;34012;-81
2023/12/12 02:01:05;;;;;;;1.45;1.45;;;;;;;5.27;65.54;99375.72;4406481;32;31570;-81
2023/12/12 02:03:34;;;;;;;3.67;3.35;;;;;;;5.37;65.03;99372.81;4406599;32;34548;-81
2023/12/12 02:06:04;;;;;;;1.20;1.20;;;;;;;5.33;65.76;99379.03;4405624;32;34362;-81
2023/12/12 02:08:32;;;;;;;4.12;3.35;;;;;;;5.43;65.79;99381.38;4393692;32;34515;-81
2023/12/12 02:11:00;;;;;;;6.65;3.15;;;;;;;5.35;65.78;99385.06;4393319;32;32997;-82
2023/12/12 02:13:27;;;;;;;0.57;0.57;;;;;;;5.40;65.54;99374.47;4403550;32;32313;-81
2023/12/12 02:15:55;;;;;;;0.47;0.47;;;;;;;5.48;65.23;99375.09;4395110;32;33618;-81
2023/12/12 02:18:23;;;;;;;1.17;1.12;;;;;;;5.36;65.65;99376.34;4404641;32;34466;-82
2023/12/12 02:20:51;;;;;;;1.70;1.60;;;;;;;5.20;67.03;99366.34;4403855;32;33130;-82
2023/12/12 02:23:18;;;;;;;2.47;2.28;;;;;;;5.39;66.18;99365.75;4392484;32;34312;-83
2023/12/12 02:25:46;;;;;;;1.27;1.17;;;;;;;5.26;66.44;99377.47;4406935;32;33910;-82
2023/12/12 02:28:14;;;;;;;2.08;1.87;;;;;;;5.33;67.42;99368.56;4393088;32;33176;-84
2023/12/12 02:30:42;;;;;;;0.40;0.40;;;;;;;5.73;66.31;99354.25;4416624;32;32855;-81
2023/12/12 02:33:10;;;;;;;1.35;1.30;;;;;;;5.87;64.62;99374.78;4406378;32;33861;-81
2023/12/12 02:35:38;;;;;;;1.12;1.05;;;;;;;5.54;66.29;99374.06;4405610;32;33278;-81
2023/12/12 02:38:06;;;;;;;1.62;1.58;;;;;;;5.53;66.13;99372.34;4392461;32;35760;-81
2023/12/12 02:40:34;;;;;;;1.45;1.35;;;;;;;5.47;66.82;99372.53;4419529;32;33627;-81
2023/12/12 02:43:02;;;;;;;1.45;1.35;;;;;;;5.58;66.51;99373.06;4392333;32;33501;-81
2023/12/12 02:45:29;;;;;;;1.37;1.37;;;;;;;5.45;67.16;99372.56;4394581;32;33960;-82
2023/12/12 02:47:57;;;;;;;1.75;1.65;;;;;;;5.34;67.35;99372.03;4404928;32;34181;-81
2023/12/12 02:50:25;;;;;;;1.62;1.55;;;;;;;5.65;66.68;99366.75;4417850;32;34080;-82
2023/12/12 02:52:53;;;;;;;2.22;1.98;;;;;;;5.56;66.51;99380.97;4392549;32;32635;-81
2023/12/12 02:55:20;;;;;;;2.08;1.90;;;;;;;5.64;66.73;99358.00;4402728;32;36127;-81
2023/12/12 02:57:48;;;;;;;3.12;2.85;;;;;;;5.82;66.21;99368.84;4408255;32;33873;-82
2023/12/12 03:00:16;;;;;;;0.80;0.75;;;;;;;5.90;66.09;99365.06;4409232;32;33181;-81
2023/12/12 03:02:43;;;;;;;0.90;0.65;;;;;;;5.49;67.20;99378.59;4407086;32;32413;-81
2023/12/12 03:05:11;;;;;;;2.47;2.28;;;;;;;5.71;67.09;99391.91;4405396;32;33598;-82
2023/12/12 03:07:39;;;;;;;6.97;3.67;;;;;;;5.76;66.64;99382.13;4404770;32;34248;-82
2023/12/12 03:10:07;;;;;;;2.53;2.40;;;;;;;5.63;67.32;99386.88;4407499;32;34267;-82
2023/12/12 03:12:35;;;;;;;1.55;1.50;;;;;;;5.71;67.02;99394.53;4394898;32;34046;-82
2023/12/12 03:15:03;;;;;;;1.87;1.77;;;;;;;5.74;66.88;99402.25;4391018;32;34089;-82
2023/12/12 03:17:30;;;;;;;4.15;1.45;;;;;;;5.78;67.13;99390.78;4391714;32;33643;-82
2023/12/12 03:19:59;;;;;;;4.40;3.83;;;;;;;5.73;66.90;99393.56;4397979;32;33541;-82
2023/12/12 03:22:26;;;;;;;4.03;2.50;;;;;;;5.72;66.92;99397.09;4394187;32;33425;-82
2023/12/12 03:24:55;;;;;;;4.97;3.08;;;;;;;5.59;66.91;99391.34;4380332;32;32642;-82
2023/12/12 03:27:23;;;;;;;8.05;3.20;;;;;;;5.52;67.88;99400.31;4403215;32;34096;-82
2023/12/12 03:29:50;;;;;;;1.73;1.62;;;;;;;5.68;66.84;99405.06;4398738;32;33704;-82
2023/12/12 03:32:18;;;;;;;2.22;2.08;;;;;;;5.83;66.08;99400.22;4412050;32;33118;-84
2023/12/12 03:34:46;;;;;;;3.40;3.10;;;;;;;5.83;66.62;99405.47;4401265;32;34117;-82
2023/12/12 03:37:15;;;;;;;1.55;1.45;;;;;;;5.68;66.20;99403.31;4389107;32;35402;-82
2023/12/12 03:39:44;;;;;;;0.30;0.30;;;;;;;5.67;67.08;99413.84;4393463;32;33810;-82
2023/12/12 03:42:12;;;;;;;2.37;2.22;;;;;;;5.79;66.43;99422.22;4403125;32;33596;-83
2023/12/12 03:44:39;;;;;;;1.05;0.88;;;;;;;5.80;66.22;99418.69;4400485;32;33342;-83
2023/12/12 03:47:07;;;;;;;1.17;1.17;;;;;;;5.78;66.00;99412.59;4399084;32;34510;-83
2023/12/12 03:49:35;;;;;;;2.72;1.45;;;;;;;5.65;66.46;99413.91;4393851;32;32867;-83
2023/12/12 03:52:02;;;;;;;3.42;1.45;;;;;;;5.73;66.46;99419.75;4404526;32;33274;-83
2023/12/12 03:54:32;;;;;;;3.20;2.97;;;;;;;5.83;65.34;99415.09;4396982;32;33622;-82
2023/12/12 03:56:59;;;;;;;3.62;3.42;;;;;;;5.83;66.06;99421.19;4400845;32;34515;-83
2023/12/12 03:59:27;;;;;;;1.30;1.27;;;;;;;5.68;66.46;99421.66;4392687;32;32925;-83
2023/12/12 04:01:55;;;;;;;3.53;2.22;;;;;;;5.76;66.00;99414.44;4400182;32;32795;-83
2023/12/12 04:04:23;;;;;;;4.18;3.87;;;;;;;5.82;65.86;99429.09;4380758;32;32842;-84
2023/12/12 04:06:51;;;;;;;2.17;2.03;;;;;;;5.80;66.08;99425.69;4410681;32;34747;-83
2023/12/12 04:09:18;;;;;;;2.67;2.47;;;;;;;5.79;65.60;99423.94;4378282;32;32855;-83
2023/12/12 04:11:46;;;;;;;2.08;1.98;;;;;;;5.79;65.85;99424.81;4393054;32;33231;-81
2023/12/12 04:14:14;;;;;;;6.57;4.25;;;;;;;5.74;65.98;99424.06;4393985;32;33724;-81
2023/12/12 04:16:41;;;;;;;1.08;1.05;;;;;;;5.73;65.51;99432.84;4377505;32;35479;-81
2023/12/12 04:19:09;;;;;;;1.75;1.00;;;;;;;5.80;65.59;99426.53;4382032;32;32309;-81
2023/12/12 04:21:37;;;;;;;1.95;1.85;;;;;;;5.74;65.01;99428.47;4399162;32;32175;-81
2023/12/12 04:24:05;;;;;;;1.70;1.60;;;;;;;5.83;65.16;99415.94;4391320;32;34154;-81
2023/12/12 04:26:33;;;;;;;1.42;1.37;;;;;;;5.68;65.66;99426.03;4406018;32;33943;-82
2023/12/12 04:29:00;;;;;;;1.87;1.77;;;;;;;5.74;65.46;99424.06;4406596;32;33678;-83
2023/12/12 04:31:28;;;;;;;1.98;1.65;;;;;;;5.55;65.91;99428.16;4392022;32;33179;-82
2023/12/12 04:33:56;;;;;;;3.72;3.42;;;;;;;5.68;65.78;99432.13;4411207;32;34035;-81
2023/12/12 04:36:24;;;;;;;2.58;2.12;;;;;;;5.76;65.46;99429.28;4400631;32;33767;-82
2023/12/12 04:38:51;;;;;;;0.73;0.73;;;;;;;5.60;65.75;99441.97;4403849;32;33657;-81
2023/12/12 04:41:19;;;;;;;3.45;2.10;;;;;;;5.55;65.96;99442.09;4381387;32;31969;-82
2023/12/12 04:43:47;;;;;;;0.57;0.57;;;;;;;5.64;65.43;99435.75;4402423;32;33938;-82
2023/12/12 04:46:19;;;;;;;0.93;0.93;;;;;;;5.66;65.37;99444.44;4398559;32;34695;-83
2023/12/12 04:48:47;;;;;;;1.48;1.42;;;;;;;5.54;66.10;99439.53;4376135;32;33153;-83
2023/12/12 04:51:15;;;;;;;2.72;2.47;;;;;;;5.70;65.85;99434.69;4385547;32;34086;-83
2023/12/12 04:53:42;;;;;;;1.92;1.75;;;;;;;5.60;66.48;99428.87;4389669;32;33940;-83
2023/12/12 04:56:11;;;;;;;2.30;2.17;;;;;;;5.61;66.33;99420.13;4390057;32;35234;-82
2023/12/12 04:58:39;;;;;;;1.10;1.05;;;;;;;5.70;66.04;99413.75;4401264;32;32219;-83
2023/12/12 05:01:06;;;;;;;2.80;2.58;;;;;;;5.52;66.45;99425.62;4400405;32;33165;-82
2023/12/12 05:03:34;;;;;;;0.80;0.80;;;;;;;5.61;66.78;99430.59;4403948;32;33690;-83
2023/12/12 05:06:02;;;;;;;0.60;0.60;;;;;;;5.73;66.69;99440.69;4397536;32;32786;-82
2023/12/12 05:08:30;;;;;;;1.65;1.33;;;;;;;6.04;65.04;99445.91;4400981;32;33247;-82
2023/12/12 05:10:58;;;;;;;1.20;1.20;;;;;;;5.88;65.27;99450.72;4393111;32;33091;-82
2023/12/12 05:13:26;;;;;;;3.00;2.80;;;;;;;5.72;65.92;99443.38;4411295;32;33821;-82
2023/12/12 05:15:54;;;;;;;3.60;3.30;;;;;;;5.55;66.83;99446.47;4378899;32;33128;-82
2023/12/12 05:18:22;;;;;;;0.95;0.95;;;;;;;5.56;66.59;99448.22;4390383;32;34105;-82
2023/12/12 05:20:50;;;;;;;0.62;0.62;;;;;;;5.57;66.71;99455.16;4400424;32;33706;-83
2023/12/12 05:23:18;;;;;;;15.52;3.40;;;;;;;5.70;66.05;99459.16;4411693;32;33989;-82
2023/12/12 05:25:46;;;;;;;0.70;0.70;;;;;;;5.60;66.17;99450.72;4398996;32;34043;-83
2023/12/12 05:28:16;;;;;;;0.82;0.82;;;;;;;5.51;66.13;99450.13;4406077;32;33211;-82
2023/12/12 05:30:44;;;;;;;3.60;3.25;;;;;;;5.57;66.12;99449.94;4398206;32;34590;-84
2023/12/12 05:33:15;;;;;;;3.33;2.42;;;;;;;5.47;65.95;99456.34;4396967;32;32689;-81
2023/12/12 05:35:43;;;;;;;2.45;2.25;;;;;;;5.67;65.32;99450.53;4400805;32;32176;-82
2023/12/12 05:38:10;;;;;;;1.83;1.52;;;;;;;5.65;66.01;99458.44;4403296;32;33933;-82
2023/12/12 05:40:38;;;;;;;1.08;0.98;;;;;;;5.53;66.48;99469.25;4415899;32;33766;-83
2023/12/12 05:43:06;;;;;;;0.90;0.90;;;;;;;5.60;66.07;99462.91;4392403;32;34907;-82
2023/12/12 05:45:33;;;;;;;0.20;0.20;;;;;;;5.55;66.24;99470.06;4389967;32;33824;-82
2023/12/12 05:48:03;;;;;;;1.40;1.35;;;;;;;5.63;66.29;99470.69;4388377;32;33250;-82
2023/12/12 05:50:31;;;;;;;0.75;0.75;;;;;;;5.33;67.47;99468.06;4397133;32;34138;-82
2023/12/12 05:52:58;;;;;;;1.50;1.40;;;;;;;5.44;66.82;99470.34;4402198;32;34437;-84
2023/12/12 05:55:28;;;;;;;1.25;0.93;;;;;;;5.37;67.04;99485.41;4396132;32;34790;-82
2023/12/12 05:57:56;;;;;;;0.00;0.00;;;;;;;5.28;68.05;99483.03;4387200;32;32879;-82
2023/12/12 06:00:27;;;;;;;1.15;1.08;;;;;;;5.49;66.84;99481.56;4372787;32;33957;-82
2023/12/12 06:02:55;;;;;;;0.30;0.30;;;;;;;5.55;66.31;99488.38;4411423;32;33423;-80
2023/12/12 06:05:23;;;;;;;0.40;0.40;;;;;;;5.63;66.59;99487.28;4399567;32;32883;-81
2023/12/12 06:07:51;;;;;;;1.17;1.08;;;;;;;5.56;66.75;99485.75;4395402;32;30612;-81
2023/12/12 06:10:19;;;;;;;2.03;1.85;;;;;;;5.52;67.37;99480.63;4399458;32;33883;-82
2023/12/12 06:12:50;;;;;;;1.25;0.98;;;;;;;5.32;68.40;99495.12;4396489;32;33040;-82
2023/12/12 06:15:18;;;;;;;0.75;0.75;;;;;;;5.40;67.42;99503.63;4398432;32;32907;-81
2023/12/12 06:17:45;;;;;;;0.85;0.85;;;;;;;5.20;68.02;99511.16;4398687;32;32808;-81
2023/12/12 06:20:13;;;;;;;1.48;1.37;;;;;;;5.24;68.61;99520.66;4380255;32;32406;-81
2023/12/12 06:22:41;;;;;;;1.85;0.65;;;;;;;5.38;68.46;99513.28;4399222;32;33640;-83
2023/12/12 06:25:09;;;;;;;1.17;1.17;;;;;;;5.83;66.28;99505.03;4380371;32;34463;-80
2023/12/12 06:27:37;;;;;;;0.50;0.50;;;;;;;5.62;66.68;99517.00;4396317;32;34894;-80
2023/12/12 06:30:05;;;;;;;0.08;0.08;;;;;;;5.50;67.39;99516.47;4387911;32;33660;-81
2023/12/12 06:32:33;;;;;;;2.20;0.98;;;;;;;5.49;67.57;99514.75;4388872;32;32903;-80
2023/12/12 06:35:02;;;;;;;2.00;0.73;;;;;;;5.61;66.71;99519.66;4401705;32;34202;-81
2023/12/12 06:37:29;;;;;;;1.50;1.48;;;;;;;5.79;65.84;99508.66;4400809;32;32764;-80
2023/12/12 06:39:58;;;;;;;0.85;0.85;;;;;;;5.65;66.85;99505.59;4386199;32;30868;-80
2023/12/12 06:42:26;;;;;;;0.15;0.15;;;;;;;5.29;67.60;99523.16;4397268;32;32541;-80
2023/12/12 06:44:53;;;;;;;3.20;1.75;;;;;;;5.01;69.00;99525.62;4381015;32;32496;-81
2023/12/12 06:47:22;;;;;;;0.20;0.20;;;;;;;5.26;68.50;99518.84;4383907;32;32792;-81
2023/12/12 06:49:50;;;;;;;1.12;0.80;;;;;;;5.45;68.23;99513.13;4401823;32;33967;-80
2023/12/12 06:52:18;;;;;;;0.90;0.90;;;;;;;5.13;69.13;99534.03;4391138;32;33327;-80
2023/12/12 06:54:45;;;;;;;0.55;0.55;;;;;;;5.27;69.82;99530.16;4391055;32;34044;-81
2023/12/12 06:57:14;;;;;;;1.10;1.00;;;;;;;5.86;66.34;99525.06;4405037;32;32498;-81
2023/12/12 06:59:41;;;;;;;1.17;0.93;;;;;;;5.53;67.82;99543.44;4389969;32;32961;-81
2023/12/12 07:02:10;;;;;;;2.47;2.17;;;;;;;5.27;69.15;99536.28;4375448;32;33313;-81
2023/12/12 07:04:38;;;;;;;0.70;0.65;;;;;;;5.38;68.30;99539.47;4400330;32;33727;-81
2023/12/12 07:07:05;;;;;;;1.40;1.40;;;;;;;5.51;68.30;99547.00;4390043;32;33561;-80
2023/12/12 07:09:33;;;;;;;1.17;1.17;;;;;;;5.64;68.43;99545.75;4386143;32;32880;-81
2023/12/12 07:12:03;;;;;;;0.98;0.98;;;;;;;5.39;69.13;99549.03;4390848;32;34303;-81
2023/12/12 07:14:31;;;;;;;2.78;2.47;;;;;;;5.60;69.07;99544.09;4388286;32;37501;-81
2023/12/12 07:16:59;;;;;;;2.58;1.42;;;;;;;5.74;68.72;99555.06;4374800;32;33900;-81
2023/12/12 07:19:26;;;;;;;4.18;3.80;;;;;;;5.95;68.71;99550.19;4383723;32;33406;-81
2023/12/12 07:21:54;;;;;;;4.65;2.80;;;;;;;5.83;69.13;99549.56;4384793;32;34013;-81
2023/12/12 07:24:22;;;;;;;3.92;3.05;;;;;;;5.80;69.11;99557.53;4384564;32;33418;-81
2023/12/12 07:26:50;;;;;;;2.08;1.98;;;;;;;6.04;69.07;99550.75;4358941;32;33490;-83
2023/12/12 07:29:19;;;;;;;2.08;1.87;;;;;;;6.05;68.29;99549.00;4359430;32;33408;-81
2023/12/12 07:31:47;;;;;;;2.53;2.33;;;;;;;5.89;69.08;99551.19;4384159;32;33743;-82
2023/12/12 07:34:15;;;;;;;3.95;1.10;;;;;;;5.95;69.95;99542.31;4350485;32;32777;-82
2023/12/12 07:36:45;;;;;;;3.95;2.28;;;;;;;6.16;68.98;99549.53;4373613;32;31864;-82
2023/12/12 07:39:13;;;;;;;2.05;1.27;;;;;;;6.26;68.51;99558.84;4359439;32;32089;-82
2023/12/12 07:41:40;;;;;;;2.85;1.65;;;;;;;6.22;68.84;99566.84;4356695;32;32949;-83
2023/12/12 07:44:08;;;;;;;2.95;2.50;;;;;;;6.33;69.01;99570.88;4372882;32;34158;-83
2023/12/12 07:46:40;;;;;;;4.12;0.85;;;;;;;6.34;68.84;99559.47;4381567;32;33189;-82
2023/12/12 07:49:08;;;;;;;4.20;2.83;;;;;;;6.50;68.12;99565.09;4406433;32;33270;-83
2023/12/12 07:51:37;;;;;;;2.92;2.17;;;;;;;6.41;68.73;99568.88;4394211;32;34488;-83
2023/12/12 07:54:06;;;;;;;1.52;1.45;;;;;;;6.52;68.20;99559.81;4391481;32;33498;-82
2023/12/12 07:56:34;;;;;;;1.50;1.40;;;;;;;6.79;68.21;99561.59;4378796;32;33899;-83
2023/12/12 07:59:03;;;;;;;0.88;0.88;;;;;;;7.00;67.63;99559.16;4390224;32;33217;-83
2023/12/12 08:01:30;;;;;;;1.60;0.88;;;;;;;6.93;68.25;99563.72;4406907;32;33242;-83
2023/12/12 08:03:59;;;;;;;0.95;0.95;;;;;;;6.93;68.27;99569.88;4392684;32;34165;-83
2023/12/12 08:06:27;;;;;;;2.17;1.98;;;;;;;6.87;68.96;99575.28;4392641;32;32471;-83
2023/12/12 08:08:54;;;;;;;1.40;1.20;;;;;;;6.67;69.08;99580.31;4382040;32;34697;-83
2023/12/12 08:11:24;;;;;;;1.95;1.85;;;;;;;7.06;68.44;99578.19;4394001;32;32975;-83
2023/12/12 08:13:52;;;;;;;2.35;1.58;;;;;;;7.02;69.25;99567.81;4393623;32;33314;-83
2023/12/12 08:16:21;;;;;;;7.72;4.75;;;;;;;7.32;68.39;99558.94;4381684;32;33225;-83
2023/12/12 08:18:50;;;;;;;0.75;0.75;;;;;;;7.15;69.39;99561.28;4393879;32;33830;-83
2023/12/12 08:21:17;;;;;;;;;;;;;;;7.27;69.02;99562.62;4406523;32;33971;-83
2023/12/12 08:23:48;;;;;;;0.68;0.68;;;;;;;7.24;69.76;99560.09;4381194;32;33219;-83
2023/12/12 08:26:15;;;;;;;1.70;1.60;;;;;;;7.03;70.93;99570.44;4380481;32;33860;-83
2023/12/12 08:28:43;;;;;;;2.30;2.17;;;;;;;7.26;71.48;99574.87;4393828;32;34284;-83
2023/12/12 08:31:11;;;;;;;1.33;1.23;;;;;;;7.57;69.91;99563.34;4388719;32;32665;-83
2023/12/12 08:33:39;;;;;;;1.00;1.00;;;;;;;7.74;69.42;99574.13;4398356;32;34205;-84
2023/12/12 08:36:08;;;;;;;2.58;1.87;;;;;;;7.89;69.91;99563.03;4402588;32;33014;-83
2023/12/12 08:38:35;;;;;;;3.00;1.87;;;;;;;8.16;69.49;99570.81;4394104;32;32927;-83
2023/12/12 08:41:03;;;;;;;1.58;1.35;;;;;;;8.47;68.30;99560.03;4389805;32;99787;-83
2023/12/12 08:43:35;;;;;;;;;;;;;;;8.46;68.85;99558.31;4391695;32;33858;-83
2023/12/12 08:46:04;;;;;;;0.50;0.50;;;;;;;8.57;68.58;99566.63;4412847;32;33994;-84
2023/12/12 08:48:32;;;;;;;1.85;1.75;;;;;;;8.68;69.09;99572.31;4401579;32;33650;-84
2023/12/12 08:50:59;;;;;;;1.08;0.75;;;;;;;9.03;68.05;99572.69;4401964;32;33172;-83
2023/12/12 08:53:27;;;;;;;0.43;0.43;;;;;;;9.40;67.53;99564.13;4390142;32;33063;-84
2023/12/12 08:55:55;;;;;;;1.35;1.25;;;;;;;9.59;66.17;99563.31;4392573;32;33455;-84
2023/12/12 08:58:23;;;;;;;0.50;0.50;;;;;;;9.57;66.04;99560.75;4377632;32;32518;-83
2023/12/12 09:00:54;;;;;;;0.22;0.22;;;;;;;9.83;64.79;99562.25;4391968;32;33090;-83
2023/12/12 09:03:23;;;;;;;0.73;0.73;;;;;;;10.09;63.62;99552.31;4400544;32;34654;-84
2023/12/12 09:05:51;;;;;;;0.20;0.20;;;;;;;10.20;62.36;99556.16;4393800;32;33083;-84
2023/12/12 09:08:18;;;;;;;0.57;0.57;;;;;;;10.23;60.73;99550.75;4408654;32;34281;-84
2023/12/12 09:10:46;;;;;;;0.20;0.20;;;;;;;10.47;59.99;99554.03;4402262;32;34031;-84
2023/12/12 09:13:14;;;;;;;0.00;0.00;;;;;;;10.43;60.21;99552.47;4413963;32;33675;-84
2023/12/12 09:15:42;;;;;;;0.88;0.88;;;;;;;10.72;57.62;99553.72;4401842;32;32774;-84
2023/12/12 09:18:09;;;;;;;0.98;0.37;;;;;;;10.84;58.09;99546.16;4397612;32;33220;-83
2023/12/12 09:20:47;;;;;;;1.35;0.32;;;;;;;10.99;57.88;99551.53;4387598;32;33147;-83
2023/12/12 09:23:16;;;;;;;0.37;0.35;;;;;;;10.97;57.71;99547.28;4389878;32;33721;-84
2023/12/12 09:25:45;;;;;;;0.45;0.45;;;;;;;11.26;57.24;99551.09;4395311;32;33361;-84
2023/12/12 09:28:14;;;;;;;4.90;1.90;;;;;;;11.36;57.15;99547.06;4367019;32;32995;-84
2023/12/12 09:30:42;;;;;;;0.88;0.88;;;;;;;11.54;56.87;99550.56;4408831;32;34458;-84
2023/12/12 09:33:09;;;;;;;;;;;;;;;11.42;56.26;99541.44;4400903;32;34110;-84
2023/12/12 09:35:37;;;;;;;;;;;;;;;11.66;56.07;99549.03;4380979;32;32849;-84
2023/12/12 09:38:05;;;;;;;;;;;;;;;11.89;54.58;99546.09;4408279;32;32473;-84
2023/12/12 09:40:34;;;;;;;;;;;;;;;12.11;53.55;99539.66;4403029;32;33838;-84
2023/12/12 09:43:04;;;;;;;0.00;0.00;;;;;;;12.14;53.17;99542.13;4386745;32;34338;-84
2023/12/12 09:45:32;;;;;;;0.43;0.43;;;;;;;12.33;53.01;99542.81;4401259;32;33341;-84
2023/12/12 09:48:00;;;;;;;0.20;0.20;;;;;;;12.51;51.87;99530.34;4377047;32;34146;-84
2023/12/12 09:50:30;;;;;;;0.75;0.43;;;;;;;12.72;51.57;99522.97;4373358;32;32772;-84
2023/12/12 09:52:59;;;;;;;1.30;0.70;;;;;;;12.75;51.48;99526.31;4371762;32;32822;-84
2023/12/12 09:55:28;;;;;;;0.20;0.20;;;;;;;12.57;52.85;99528.22;4397970;32;33229;-84
2023/12/12 09:57:56;;;;;;;1.83;1.15;;;;;;;12.75;52.21;99521.03;4390113;32;32386;-84
2023/12/12 10:00:24;;;;;;;1.08;1.05;;;;;;;12.65;51.23;99532.25;4390958;32;33630;-85
2023/12/12 10:02:55;;;;;;;2.62;0.70;;;;;;;12.80;51.11;99526.06;4387815;32;33419;-84
2023/12/12 10:05:25;;;;;;;0.03;0.03;;;;;;;12.95;50.48;99534.91;4393292;32;32346;-84
2023/12/12 10:07:53;;;;;;;1.10;0.70;;;;;;;12.91;50.68;99528.94;4378060;32;34199;-84
2023/12/12 10:10:31;;;;;;;0.52;0.52;;;;;;;12.96;50.27;99526.03;4388162;32;33462;-84
2023/12/12 10:12:59;;;;;;;2.33;0.80;;;;;;;12.99;50.48;99532.00;4372074;32;33903;-84
2023/12/12 10:15:27;;;;;;;0.47;0.35;;;;;;;12.82;50.43;99519.75;4374999;32;31895;-84
2023/12/12 10:17:59;;;;;;;0.20;0.20;;;;;;;12.93;50.28;99516.47;4397681;32;33141;-84
2023/12/12 10:20:29;;;;;;;1.92;1.33;;;;;;;13.13;50.03;99510.00;4400233;32;33378;-84
2023/12/12 10:22:59;;;;;;;1.67;1.17;;;;;;;13.12;49.69;99513.59;4388533;32;33599;-84
2023/12/12 10:25:36;;;;;;;0.47;0.47;;;;;;;12.87;49.44;99516.84;4381575;32;33372;-84
2023/12/12 10:28:03;;;;;;;0.28;0.25;;;;;;;13.44;47.84;99503.78;4391102;32;34378;-84
2023/12/12 10:30:31;;;;;;;2.90;1.25;;;;;;;13.11;50.23;99509.25;4390101;32;33466;-84
2023/12/12 10:32:59;;;;;;;0.43;0.32;;;;;;;13.66;47.24;99497.16;4391217;32;34105;-84
2023/12/12 10:35:28;;;;;;;1.35;0.80;;;;;;;13.41;48.51;99505.75;4391057;32;34379;-84
2023/12/12 10:37:57;;;;;;;0.62;0.60;;;;;;;13.57;48.86;99512.69;4387875;32;32739;-84
2023/12/12 10:40:25;;;;;;;0.50;0.50;;;;;;;13.63;48.56;99516.78;4397571;32;34867;-84
2023/12/12 10:42:53;;;;;;;2.17;0.75;;;;;;;13.53;49.35;99521.78;4361521;32;34447;-84
2023/12/12 10:45:21;;;;;;;0.40;0.40;;;;;;;13.79;49.39;99516.69;4375065;32;34465;-84
2023/12/12 10:47:50;;;;;;;0.30;0.30;;;;;;;13.72;48.93;99516.22;4391771;32;33871;-84
2023/12/12 10:50:19;;;;;;;0.10;0.10;;;;;;;13.87;48.75;99518.88;4392845;32;35508;-84
2023/12/12 10:52:51;;;;;;;0.10;0.10;;;;;;;14.04;47.62;99516.88;4412550;32;35323;-84
2023/12/12 10:55:19;;;;;;;0.52;0.52;;;;;;;14.03;48.18;99523.13;4413433;32;32566;-84
2023/12/12 10:57:47;;;;;;;0.52;0.52;;;;;;;14.16;47.75;99519.72;4389580;32;34014;-84
2023/12/12 11:00:17;;;;;;;11.93;1.08;;;;;;;14.40;47.94;99510.19;4403116;32;33635;-84
2023/12/12 11:02:47;;;;;;;0.70;0.70;;;;;;;14.74;44.89;99521.31;4396643;32;33682;-84
2023/12/12 11:05:16;;;;;;;0.82;0.82;;;;;;;14.63;45.33;99511.41;4389063;32;34079;-84
2023/12/12 11:07:48;;;;;;;0.13;0.13;;;;;;;14.70;44.28;99514.50;4398150;32;33619;-84
2023/12/12 11:10:21;;;;;;;0.17;0.17;;;;;;;14.40;46.35;99509.34;4396964;32;33578;-84
2023/12/12 11:12:51;;;;;;;2.53;1.05;;;;;;;14.65;44.29;99508.63;4390892;32;34002;-84
2023/12/12 11:15:20;;;;;;;0.15;0.15;;;;;;;14.28;45.80;99503.00;4399051;32;32814;-84
2023/12/12 11:17:50;;;;;;;0.32;0.32;;;;;;;14.17;46.79;99509.00;4402083;32;33911;-84
2023/12/12 11:20:19;;;;;;;0.00;0.00;;;;;;;14.20;47.46;99510.63;4396445;32;33250;-84
2023/12/12 11:22:50;;;;;;;0.35;0.35;;;;;;;14.28;46.88;99513.63;4403878;32;33515;-84
2023/12/12 11:25:21;;;;;;;2.40;1.30;;;;;;;14.26;47.17;99518.19;4415882;32;34406;-84
2023/12/12 11:27:53;;;;;;;1.00;0.17;;;;;;;14.25;47.23;99509.38;4405592;32;32978;-85
2023/12/12 11:30:30;;;;;;;1.48;1.02;;;;;;;14.14;47.19;99510.97;4372628;32;33501;-84
2023/12/12 11:33:00;;;;;;;0.60;0.60;;;;;;;14.15;46.41;99508.25;4393636;32;32737;-84
2023/12/12 11:35:30;;;;;;;0.20;0.20;;;;;;;14.06;46.96;99514.97;4380004;32;33026;-84
2023/12/12 11:38:00;;;;;;;1.15;0.47;;;;;;;14.16;45.58;99515.25;4383281;32;34747;-84
2023/12/12 11:40:29;;;;;;;3.60;1.42;;;;;;;13.85;46.41;99511.00;4386593;32;34811;-84
2023/12/12 11:43:18;;;;;;;0.57;0.43;;;;;;;14.14;45.31;99505.66;4393172;32;36027;-84
2023/12/12 11:45:46;;;;;;;0.52;0.52;;;;;;;13.85;46.20;99505.69;4392715;32;33681;-84
2023/12/12 11:48:14;;;;;;;0.00;0.00;;;;;;;13.58;46.85;99509.09;4404309;32;33293;-84